Time;durP1;ratioP1;P1;durP2;ratioP2;P2;SDS_P1;SDS_P2;PMS_P1;PMS_P2;Temp;Humidity;BMP_temperature;BMP_pressure;BME280_temperature;BME280_humidity;BME280_pressure;Samples;Min_cycle;Max_cycle;Signal;HPM_P1;HPM_P2
2021/06/05 00:01:48;;;;;;;23.10;21.93;;;20.30;75.60;;;;;;5061037;28;20572;-87
2021/06/05 00:04:16;;;;;;;23.10;21.90;;;20.30;75.00;;;;;;5071165;28;20501;-88
2021/06/05 00:06:42;;;;;;;23.20;21.90;;;20.20;75.70;;;;;;5064963;28;20458;-87
2021/06/05 00:09:09;;;;;;;22.70;21.50;;;20.20;76.00;;;;;;5074763;28;20442;-87
2021/06/05 00:11:36;;;;;;;23.20;21.80;;;20.10;76.20;;;;;;5074736;28;20454;-87
2021/06/05 00:14:07;;;;;;;23.50;22.30;;;20.20;75.80;;;;;;5073465;28;20564;-87
2021/06/05 00:16:38;;;;;;;22.73;21.63;;;20.20;75.30;;;;;;5069611;28;20453;-87
2021/06/05 00:19:06;;;;;;;23.73;22.30;;;20.20;74.90;;;;;;5073474;28;20454;-88
2021/06/05 00:21:33;;;;;;;24.13;22.80;;;20.10;75.60;;;;;;5060185;28;20564;-87
2021/06/05 00:24:01;;;;;;;23.30;21.90;;;20.10;75.50;;;;;;5065999;28;20484;-88
2021/06/05 00:26:28;;;;;;;23.07;21.97;;;20.20;75.30;;;;;;5082945;28;20509;-87
2021/06/05 00:28:54;;;;;;;23.00;21.90;;;20.10;76.10;;;;;;5059639;28;20960;-87
2021/06/05 00:31:22;;;;;;;23.63;22.33;;;20.10;75.90;;;;;;5062549;28;20549;-87
2021/06/05 00:33:48;;;;;;;23.30;22.20;;;20.10;76.00;;;;;;5066718;28;20514;-87
2021/06/05 00:36:16;;;;;;;23.00;21.80;;;20.00;76.80;;;;;;5053584;28;20454;-87
2021/06/05 00:38:42;;;;;;;24.37;22.97;;;19.90;77.60;;;;;;5056419;28;20858;-87
2021/06/05 00:41:13;;;;;;;23.57;22.27;;;19.80;78.40;;;;;;5058933;28;20462;-88
2021/06/05 00:43:43;;;;;;;22.20;21.10;;;19.80;79.50;;;;;;5072822;28;20506;-88
2021/06/05 00:46:11;;;;;;;21.83;20.60;;;19.70;79.90;;;;;;5071959;28;20561;-87
2021/06/05 00:48:39;;;;;;;22.30;21.10;;;19.70;79.90;;;;;;5067007;28;20462;-88
2021/06/05 00:51:06;;;;;;;22.63;21.20;;;19.60;80.20;;;;;;5055130;28;20892;-87
2021/06/05 00:53:34;;;;;;;22.23;20.87;;;19.60;80.00;;;;;;5067107;28;20527;-85
2021/06/05 00:56:02;;;;;;;22.00;20.80;;;19.50;79.80;;;;;;5063521;28;20512;-87
2021/06/05 00:58:29;;;;;;;21.67;20.57;;;19.40;80.50;;;;;;5058086;28;20447;-86
2021/06/05 01:00:58;;;;;;;21.80;20.60;;;19.40;80.40;;;;;;5050698;28;20807;-86
2021/06/05 01:03:26;;;;;;;22.53;21.37;;;19.30;80.70;;;;;;5057273;28;20486;-86
2021/06/05 01:05:58;;;;;;;21.67;20.27;;;19.20;81.20;;;;;;5051005;28;20482;-85
2021/06/05 01:08:32;;;;;;;21.30;20.10;;;19.20;81.50;;;;;;5055102;28;20463;-86
2021/06/05 01:11:08;;;;;;;21.70;20.47;;;19.10;81.90;;;;;;5066792;28;20463;-88
2021/06/05 01:13:39;;;;;;;22.00;20.80;;;19.00;82.20;;;;;;5070176;28;20565;-87
2021/06/05 01:16:11;;;;;;;21.67;20.33;;;18.90;82.60;;;;;;5065035;28;20450;-87
2021/06/05 01:18:42;;;;;;;21.17;20.07;;;19.00;82.50;;;;;;5053358;28;21120;-87
2021/06/05 01:21:46;;;;;;;21.40;20.20;;;18.90;82.70;;;;;;5087111;28;20457;-87
2021/06/05 01:24:26;;;;;;;21.20;19.90;;;18.80;82.80;;;;;;5053536;28;20465;-86
2021/06/05 01:26:57;;;;;;;20.43;19.43;;;18.80;82.60;;;;;;5048794;28;20506;-86
2021/06/05 01:29:27;;;;;;;20.73;19.73;;;18.90;82.00;;;;;;5061132;28;20517;-87
2021/06/05 01:31:58;;;;;;;21.13;19.93;;;19.00;81.50;;;;;;5051127;28;20458;-86
2021/06/05 01:34:26;;;;;;;20.97;19.57;;;18.90;81.50;;;;;;5056431;28;20504;-87
2021/06/05 01:36:57;;;;;;;20.73;19.63;;;18.90;81.30;;;;;;5057626;28;20612;-86
2021/06/05 01:39:28;;;;;;;20.97;19.90;;;18.90;81.10;;;;;;5053940;28;21112;-87
2021/06/05 01:41:58;;;;;;;20.80;19.70;;;18.90;81.10;;;;;;5051554;28;20547;-86
2021/06/05 01:44:26;;;;;;;21.00;19.90;;;18.90;81.00;;;;;;5055939;28;20467;-86
2021/06/05 01:46:53;;;;;;;20.43;19.43;;;18.80;81.00;;;;;;5049125;28;20459;-87
2021/06/05 01:49:20;;;;;;;21.00;19.90;;;18.80;80.90;;;;;;5045514;28;20768;-86
2021/06/05 01:51:50;;;;;;;21.00;19.90;;;18.80;80.20;;;;;;5043481;28;21054;-86
2021/06/05 01:54:22;;;;;;;21.30;20.10;;;18.80;80.20;;;;;;5052425;28;20458;-86
2021/06/05 01:56:54;;;;;;;21.20;20.00;;;18.90;80.10;;;;;;5057958;28;20463;-90
2021/06/05 01:59:22;;;;;;;21.20;20.10;;;18.90;79.90;;;;;;5051498;28;20450;-86
2021/06/05 02:01:49;;;;;;;20.70;19.60;;;18.90;79.80;;;;;;5052753;28;20964;-85
2021/06/05 02:04:16;;;;;;;21.30;20.17;;;18.90;79.60;;;;;;5051579;28;20459;-86
2021/06/05 02:06:46;;;;;;;21.80;20.70;;;18.90;79.30;;;;;;5047757;28;20640;-85
2021/06/05 02:09:16;;;;;;;22.10;20.90;;;19.00;79.40;;;;;;5062523;28;20905;-86
2021/06/05 02:11:47;;;;;;;22.57;21.30;;;18.90;79.00;;;;;;5065247;28;20486;-85
2021/06/05 02:14:18;;;;;;;22.17;21.07;;;18.90;79.40;;;;;;5067717;28;20469;-85
2021/06/05 02:16:49;;;;;;;21.80;20.60;;;18.90;79.40;;;;;;5057618;28;21368;-86
2021/06/05 02:19:19;;;;;;;20.70;19.70;;;18.90;79.40;;;;;;5052773;28;20467;-86
2021/06/05 02:21:46;;;;;;;21.10;20.00;;;19.00;79.70;;;;;;5050303;28;20455;-86
2021/06/05 02:24:16;;;;;;;20.70;19.70;;;18.90;79.80;;;;;;5061218;28;20573;-86
2021/06/05 02:26:45;;;;;;;20.53;19.53;;;18.90;79.80;;;;;;5065275;28;20568;-86
2021/06/05 02:29:15;;;;;;;21.70;20.20;;;18.90;80.10;;;;;;5056782;28;20553;-86
2021/06/05 02:31:42;;;;;;;21.50;20.40;;;18.80;80.10;;;;;;5051051;28;20526;-85
2021/06/05 02:34:15;;;;;;;20.90;19.60;;;18.90;80.00;;;;;;5069279;28;20501;-85
2021/06/05 02:36:45;;;;;;;21.20;20.00;;;18.80;80.20;;;;;;5057891;28;20482;-87
2021/06/05 02:39:14;;;;;;;21.20;19.90;;;18.80;80.20;;;;;;5054870;28;20979;-86
2021/06/05 02:41:43;;;;;;;21.10;20.00;;;18.80;80.30;;;;;;5051875;28;20538;-87
2021/06/05 02:44:10;;;;;;;20.60;19.50;;;18.80;80.50;;;;;;5065941;28;20465;-87
2021/06/05 02:46:39;;;;;;;21.03;19.93;;;18.70;80.80;;;;;;5069344;28;20488;-87
2021/06/05 02:49:08;;;;;;;21.00;19.70;;;18.80;80.70;;;;;;5061410;28;20489;-87
2021/06/05 02:51:40;;;;;;;20.10;19.10;;;18.80;80.50;;;;;;5063738;28;20701;-87
2021/06/05 02:54:07;;;;;;;20.67;19.67;;;18.70;80.80;;;;;;5061731;28;20477;-87
2021/06/05 02:56:34;;;;;;;20.70;19.70;;;18.80;80.50;;;;;;5069817;28;20457;-89
2021/06/05 02:59:01;;;;;;;21.80;20.60;;;18.80;80.50;;;;;;5059469;28;20461;-87
2021/06/05 03:01:27;;;;;;;21.43;20.33;;;18.70;80.60;;;;;;5049807;28;20451;-87
2021/06/05 03:03:54;;;;;;;21.80;20.60;;;18.80;80.40;;;;;;5052015;28;20934;-87
2021/06/05 03:06:20;;;;;;;21.43;20.17;;;18.70;80.50;;;;;;5062457;28;20491;-87
2021/06/05 03:08:48;;;;;;;22.00;20.77;;;18.80;80.20;;;;;;5070701;28;20510;-88
2021/06/05 03:11:18;;;;;;;21.60;20.50;;;18.70;80.20;;;;;;5050767;28;20552;-88
2021/06/05 03:13:45;;;;;;;21.87;20.87;;;18.70;80.50;;;;;;5048600;28;20561;-86
2021/06/05 03:16:13;;;;;;;22.70;21.43;;;18.70;80.60;;;;;;5050108;28;20464;-86
2021/06/05 03:18:39;;;;;;;22.43;21.23;;;18.80;80.00;;;;;;5060698;28;20459;-86
2021/06/05 03:21:09;;;;;;;22.43;21.20;;;18.80;79.70;;;;;;5045552;28;20475;-86
2021/06/05 03:23:36;;;;;;;22.60;21.30;;;18.80;79.50;;;;;;5049613;28;20513;-86
2021/06/05 03:26:05;;;;;;;23.40;21.53;;;18.90;79.20;;;;;;5054351;28;20490;-86
2021/06/05 03:28:34;;;;;;;22.70;21.60;;;19.10;78.80;;;;;;5052994;28;20553;-87
2021/06/05 03:31:01;;;;;;;23.27;22.13;;;19.20;78.30;;;;;;5061952;28;20458;-86
2021/06/05 03:33:28;;;;;;;22.80;21.63;;;19.20;77.70;;;;;;5048361;28;20855;-86
2021/06/05 03:35:55;;;;;;;23.47;22.10;;;19.20;77.40;;;;;;5052055;28;20450;-86
2021/06/05 03:38:23;;;;;;;23.10;21.90;;;19.30;77.60;;;;;;5063943;28;20811;-87
2021/06/05 03:40:50;;;;;;;24.00;22.70;;;19.40;77.40;;;;;;5069263;28;20461;-86
2021/06/05 03:43:18;;;;;;;24.10;22.60;;;19.40;77.20;;;;;;5057864;28;21010;-86
2021/06/05 03:45:44;;;;;;;23.40;22.20;;;19.50;77.50;;;;;;5050792;28;20487;-87
2021/06/05 03:48:11;;;;;;;24.37;23.00;;;19.50;77.90;;;;;;5054362;28;20529;-86
2021/06/05 03:50:42;;;;;;;24.00;22.60;;;19.50;78.20;;;;;;5045509;28;20520;-87
2021/06/05 03:53:09;;;;;;;24.00;22.70;;;19.60;77.80;;;;;;5053083;28;20474;-85
2021/06/05 03:55:35;;;;;;;24.87;23.47;;;19.60;77.70;;;;;;5045289;28;20529;-86
2021/06/05 03:58:02;;;;;;;23.83;22.60;;;19.70;78.20;;;;;;5045355;28;20469;-86
2021/06/05 04:00:33;;;;;;;24.37;23.07;;;19.70;78.20;;;;;;5061107;28;20465;-86
2021/06/05 04:03:00;;;;;;;24.87;23.57;;;19.70;77.90;;;;;;5056621;28;20818;-86
2021/06/05 04:05:27;;;;;;;25.77;24.17;;;19.90;77.00;;;;;;5056646;28;20933;-86
2021/06/05 04:07:54;;;;;;;24.57;23.27;;;19.90;76.90;;;;;;5045354;28;20586;-86
2021/06/05 04:10:22;;;;;;;23.30;22.10;;;19.80;77.60;;;;;;5051593;28;20493;-86
2021/06/05 04:12:49;;;;;;;24.33;23.03;;;19.70;78.00;;;;;;5058126;28;20537;-86
2021/06/05 04:15:17;;;;;;;24.10;22.60;;;19.80;78.20;;;;;;5048913;28;20539;-86
2021/06/05 04:17:45;;;;;;;23.50;22.30;;;19.80;78.00;;;;;;5058599;28;20468;-87
2021/06/05 04:20:16;;;;;;;23.77;22.20;;;19.80;78.00;;;;;;5060291;28;20544;-86
2021/06/05 04:22:43;;;;;;;23.97;22.47;;;19.80;78.40;;;;;;5054601;28;20572;-86
2021/06/05 04:25:11;;;;;;;24.00;22.70;;;19.80;78.50;;;;;;5066615;28;21008;-86
2021/06/05 04:27:37;;;;;;;23.47;22.17;;;20.00;78.30;;;;;;5058369;28;20558;-86
2021/06/05 04:30:09;;;;;;;25.00;23.57;;;19.90;78.90;;;;;;5051595;28;20560;-86
2021/06/05 04:32:36;;;;;;;27.70;25.90;;;19.80;79.40;;;;;;5052621;28;20478;-87
2021/06/05 04:35:06;;;;;;;24.27;22.97;;;19.70;79.60;;;;;;5060234;28;20458;-87
2021/06/05 04:37:32;;;;;;;24.50;23.10;;;19.60;79.40;;;;;;5052831;28;20455;-89
2021/06/05 04:39:58;;;;;;;24.17;22.73;;;19.60;79.80;;;;;;5052343;28;20606;-87
2021/06/05 04:42:25;;;;;;;25.27;23.57;;;19.60;79.50;;;;;;5052747;28;20514;-87
2021/06/05 04:44:51;;;;;;;24.40;23.00;;;19.60;79.50;;;;;;5057151;28;20529;-88
2021/06/05 04:47:18;;;;;;;23.27;22.07;;;19.60;79.50;;;;;;5085060;28;20470;-88
2021/06/05 04:49:45;;;;;;;23.70;22.00;;;19.80;78.90;;;;;;5052754;28;20480;-87
2021/06/05 04:52:13;;;;;;;25.17;23.67;;;19.80;78.80;;;;;;5051889;28;20521;-88
2021/06/05 04:54:39;;;;;;;23.63;22.27;;;19.60;79.80;;;;;;5070375;28;20963;-88
2021/06/05 04:57:06;;;;;;;24.30;22.70;;;19.70;80.20;;;;;;5070652;28;20465;-87
2021/06/05 04:59:33;;;;;;;23.77;22.43;;;19.80;80.20;;;;;;5065299;28;20542;-87
2021/06/05 05:01:59;;;;;;;24.93;23.37;;;19.90;79.70;;;;;;5067420;28;20450;-88
2021/06/05 05:04:26;;;;;;;23.33;22.17;;;19.90;79.80;;;;;;5066363;28;20457;-87
2021/06/05 05:06:52;;;;;;;26.17;24.77;;;19.90;80.40;;;;;;5073470;28;20494;-88
2021/06/05 05:09:20;;;;;;;25.20;23.80;;;19.90;80.80;;;;;;5084741;28;20477;-87
2021/06/05 05:11:47;;;;;;;24.00;22.50;;;19.80;81.10;;;;;;5083449;28;20481;-87
2021/06/05 05:14:13;;;;;;;25.33;24.00;;;19.70;81.40;;;;;;5074612;28;21019;-88
2021/06/05 05:16:41;;;;;;;22.93;21.70;;;19.80;81.40;;;;;;5065705;28;20546;-87
2021/06/05 05:19:08;;;;;;;24.60;23.20;;;19.90;81.10;;;;;;5071774;28;20458;-87
2021/06/05 05:21:35;;;;;;;23.97;22.57;;;20.00;80.80;;;;;;5071888;28;20565;-87
2021/06/05 05:24:01;;;;;;;26.67;25.00;;;20.10;80.50;;;;;;5072459;28;20580;-88
2021/06/05 05:26:29;;;;;;;24.70;23.37;;;20.00;80.50;;;;;;5066394;28;21018;-87
2021/06/05 05:28:56;;;;;;;25.73;24.33;;;20.00;80.40;;;;;;5051649;28;20805;-88
2021/06/05 05:31:26;;;;;;;24.10;22.90;;;20.10;80.10;;;;;;5050985;28;20475;-88
2021/06/05 05:33:53;;;;;;;27.40;25.77;;;20.30;79.30;;;;;;5057824;28;20524;-87
2021/06/05 05:36:22;;;;;;;24.20;22.90;;;20.40;78.60;;;;;;5069825;28;20497;-88
2021/06/05 05:38:50;;;;;;;26.40;25.00;;;20.50;78.20;;;;;;5068186;28;20467;-86
2021/06/05 05:41:18;;;;;;;28.80;27.07;;;20.50;78.30;;;;;;5049648;28;20492;-86
2021/06/05 05:43:46;;;;;;;27.27;25.57;;;20.40;78.70;;;;;;5061592;28;20565;-85
2021/06/05 05:46:14;;;;;;;25.70;24.30;;;20.30;79.10;;;;;;5062857;28;20478;-86
2021/06/05 05:48:41;;;;;;;24.57;23.33;;;20.30;79.20;;;;;;5051509;28;20938;-78
2021/06/05 05:51:09;;;;;;;24.70;23.30;;;20.40;79.70;;;;;;5063487;28;20600;-86
2021/06/05 05:53:39;;;;;;;25.10;23.70;;;20.50;78.50;;;;;;5054844;28;20570;-84
2021/06/05 05:56:05;;;;;;;25.50;24.10;;;20.80;77.50;;;;;;5049842;28;20693;-86
2021/06/05 05:58:36;;;;;;;25.17;23.77;;;21.00;76.80;;;;;;5058245;28;20462;-86
2021/06/05 06:01:06;;;;;;;26.13;24.73;;;21.20;75.90;;;;;;5043802;28;20462;-86
2021/06/05 06:03:32;;;;;;;25.90;24.50;;;21.30;75.40;;;;;;5058812;28;20478;-86
2021/06/05 06:05:59;;;;;;;27.57;26.10;;;21.50;74.60;;;;;;5062894;28;20573;-86
2021/06/05 06:08:25;;;;;;;27.97;26.17;;;21.70;73.90;;;;;;5061363;28;20940;-86
2021/06/05 06:10:52;;;;;;;29.03;27.30;;;21.90;72.90;;;;;;5049615;28;20454;-85
2021/06/05 06:13:20;;;;;;;27.50;26.10;;;22.10;72.20;;;;;;5049764;28;20554;-85
2021/06/05 06:15:47;;;;;;;29.43;27.60;;;22.20;71.70;;;;;;5059887;28;20569;-86
2021/06/05 06:18:15;;;;;;;27.53;26.13;;;22.30;71.60;;;;;;5049912;28;20977;-84
2021/06/05 06:20:44;;;;;;;27.10;25.40;;;22.30;71.70;;;;;;5058108;28;20450;-85
2021/06/05 06:23:12;;;;;;;25.90;24.50;;;22.50;70.80;;;;;;5062587;28;20471;-85
2021/06/05 06:25:40;;;;;;;25.60;23.83;;;22.50;70.50;;;;;;5069169;28;20561;-85
2021/06/05 06:28:08;;;;;;;25.80;24.50;;;22.70;70.50;;;;;;5062502;28;21229;-85
2021/06/05 06:30:39;;;;;;;29.90;28.20;;;22.80;69.70;;;;;;5060150;28;20825;-86
2021/06/05 06:33:09;;;;;;;28.27;26.57;;;23.00;69.70;;;;;;5062784;28;20501;-87
2021/06/05 06:35:38;;;;;;;28.83;27.33;;;23.00;69.50;;;;;;5052510;28;20829;-85
2021/06/05 06:38:10;;;;;;;29.53;28.03;;;23.00;69.40;;;;;;5061463;28;20450;-83
2021/06/05 06:40:37;;;;;;;28.10;26.60;;;23.20;69.10;;;;;;5054366;28;20469;-82
2021/06/05 06:43:06;;;;;;;29.30;27.60;;;23.30;68.70;;;;;;5063876;28;20522;-83
2021/06/05 06:45:33;;;;;;;27.03;25.13;;;23.30;68.50;;;;;;5069473;28;20793;-83
2021/06/05 06:48:00;;;;;;;27.77;26.27;;;23.20;68.40;;;;;;5062085;28;20468;-84
2021/06/05 06:50:28;;;;;;;28.47;26.87;;;23.40;68.30;;;;;;5046704;28;20554;-83
2021/06/05 06:52:57;;;;;;;26.93;25.63;;;23.50;68.40;;;;;;5059900;28;21127;-84
2021/06/05 06:55:24;;;;;;;27.70;26.17;;;23.70;66.60;;;;;;5062611;28;20460;-86
2021/06/05 06:57:51;;;;;;;28.23;26.73;;;23.70;66.70;;;;;;5065214;28;20874;-86
2021/06/05 07:00:23;;;;;;;27.43;25.90;;;23.80;67.20;;;;;;5058172;28;20494;-88
2021/06/05 07:02:49;;;;;;;28.47;26.97;;;23.80;66.50;;;;;;5055125;28;20492;-85
2021/06/05 07:05:16;;;;;;;27.47;25.97;;;23.80;66.90;;;;;;5055401;28;20495;-89
2021/06/05 07:07:43;;;;;;;28.00;26.60;;;23.90;66.70;;;;;;5052333;28;20449;-84
2021/06/05 07:10:13;;;;;;;29.23;27.63;;;24.00;66.80;;;;;;5051465;28;20550;-86
2021/06/05 07:12:40;;;;;;;27.23;25.73;;;24.30;65.70;;;;;;5062748;28;20475;-87
2021/06/05 07:15:07;;;;;;;27.17;25.67;;;24.30;65.10;;;;;;5046593;28;21000;-83
2021/06/05 07:17:34;;;;;;;27.37;25.90;;;24.40;65.00;;;;;;5052377;28;20455;-85
2021/06/05 07:20:02;;;;;;;27.73;26.23;;;24.50;64.70;;;;;;5059237;28;20466;-89
2021/06/05 07:22:29;;;;;;;28.50;26.80;;;24.50;64.80;;;;;;5063353;28;20848;-88
2021/06/05 07:24:55;;;;;;;30.60;28.90;;;24.90;64.20;;;;;;5064285;28;20478;-86
2021/06/05 07:27:24;;;;;;;27.30;25.80;;;24.90;63.80;;;;;;5060954;28;20485;-86
2021/06/05 07:29:51;;;;;;;28.00;26.50;;;24.90;63.70;;;;;;5063335;28;20548;-87
2021/06/05 07:32:17;;;;;;;27.27;25.77;;;25.00;63.10;;;;;;5066484;28;20490;-86
2021/06/05 07:34:44;;;;;;;31.07;29.00;;;25.00;63.90;;;;;;5061142;28;20489;-86
2021/06/05 07:37:12;;;;;;;29.93;28.23;;;25.30;63.30;;;;;;5070067;28;20976;-86
2021/06/05 07:39:39;;;;;;;26.90;25.00;;;25.50;62.20;;;;;;5060849;28;20581;-80
2021/06/05 07:42:08;;;;;;;30.83;29.03;;;25.60;61.80;;;;;;5069715;28;20488;-84
2021/06/05 07:44:36;;;;;;;28.07;26.57;;;25.60;61.80;;;;;;5066028;28;20787;-87
2021/06/05 07:47:04;;;;;;;26.90;25.40;;;25.60;62.00;;;;;;5059554;28;21074;-87
2021/06/05 07:49:33;;;;;;;28.63;27.03;;;25.60;61.70;;;;;;5047962;28;20546;-87
2021/06/05 07:52:00;;;;;;;27.90;26.30;;;26.00;60.80;;;;;;5047507;28;20475;-87
2021/06/05 07:54:27;;;;;;;29.47;27.67;;;26.00;59.80;;;;;;5050535;28;20597;-87
2021/06/05 07:56:56;;;;;;;27.80;26.10;;;25.80;59.50;;;;;;5075481;28;20454;-89
2021/06/05 07:59:25;;;;;;;31.43;29.63;;;25.80;59.70;;;;;;5081623;28;20464;-87
2021/06/05 08:01:54;;;;;;;28.73;27.23;;;25.80;60.50;;;;;;5069844;28;20459;-87
2021/06/05 08:04:21;;;;;;;28.87;27.27;;;25.80;59.60;;;;;;5060664;28;20461;-87
2021/06/05 08:06:48;;;;;;;28.10;26.60;;;25.80;59.40;;;;;;5071043;28;20518;-87
2021/06/05 08:09:15;;;;;;;29.13;27.53;;;25.70;59.60;;;;;;5073692;28;20450;-87
2021/06/05 08:11:41;;;;;;;28.83;27.23;;;25.80;60.00;;;;;;5056405;28;20529;-87
2021/06/05 08:14:08;;;;;;;27.13;25.57;;;25.90;60.30;;;;;;5064553;28;20630;-87
2021/06/05 08:16:37;;;;;;;28.13;26.60;;;26.00;60.20;;;;;;5058243;28;20558;-87
2021/06/05 08:19:06;;;;;;;27.93;26.30;;;26.00;60.10;;;;;;5065750;28;20504;-87
2021/06/05 08:21:33;;;;;;;27.77;26.17;;;26.00;60.40;;;;;;5062850;28;21235;-87
2021/06/05 08:24:00;;;;;;;28.20;26.70;;;26.10;60.30;;;;;;5063507;28;20540;-87
2021/06/05 08:26:26;;;;;;;27.10;25.50;;;26.00;60.60;;;;;;5070361;28;20465;-87
2021/06/05 08:28:53;;;;;;;27.93;26.20;;;25.80;61.20;;;;;;5067904;28;20541;-87
2021/06/05 08:31:20;;;;;;;27.43;25.73;;;25.60;61.60;;;;;;5068861;28;20573;-81
2021/06/05 08:33:48;;;;;;;26.87;25.47;;;25.40;62.30;;;;;;5067498;28;20539;-83
2021/06/05 08:36:19;;;;;;;28.83;27.13;;;25.30;63.10;;;;;;5066232;28;20438;-84
2021/06/05 08:38:45;;;;;;;27.03;25.53;;;25.20;63.80;;;;;;5096046;28;20486;-83
2021/06/05 08:41:18;;;;;;;26.83;25.33;;;25.10;64.60;;;;;;5070497;28;20551;-82
2021/06/05 08:43:49;;;;;;;27.70;26.00;;;25.20;64.40;;;;;;5075264;28;20569;-83
2021/06/05 08:46:23;;;;;;;26.70;25.30;;;25.10;64.60;;;;;;5069232;28;20478;-83
2021/06/05 08:48:50;;;;;;;28.30;26.80;;;24.90;65.20;;;;;;5082831;28;20514;-83
2021/06/05 08:51:30;;;;;;;26.80;25.27;;;24.70;65.50;;;;;;5069208;28;20656;-86
2021/06/05 08:54:07;;;;;;;26.87;25.47;;;24.60;65.90;;;;;;5052029;28;20554;-86
2021/06/05 08:56:37;;;;;;;26.17;24.67;;;24.60;66.20;;;;;;5053894;28;20473;-85
2021/06/05 08:59:04;;;;;;;27.37;25.80;;;24.70;66.10;;;;;;5046781;28;20454;-85
2021/06/05 09:01:37;;;;;;;26.90;25.50;;;24.70;66.90;;;;;;5049443;28;20930;-85
2021/06/05 09:04:07;;;;;;;26.63;25.23;;;24.70;66.50;;;;;;5058292;28;20475;-85
2021/06/05 09:06:42;;;;;;;27.70;26.10;;;24.60;66.80;;;;;;5078975;28;20486;-85
2021/06/05 09:09:12;;;;;;;28.40;26.90;;;24.60;65.70;;;;;;5062216;28;20491;-85
2021/06/05 09:11:47;;;;;;;29.17;27.37;;;24.50;65.70;;;;;;5071559;28;21299;-85
2021/06/05 09:14:14;;;;;;;27.50;26.10;;;24.60;65.70;;;;;;5058131;28;20470;-84
2021/06/05 09:16:46;;;;;;;27.13;25.70;;;24.70;65.20;;;;;;5057373;28;21153;-83
2021/06/05 09:19:20;;;;;;;28.63;27.03;;;24.90;64.90;;;;;;5064087;28;20520;-83
2021/06/05 09:21:50;;;;;;;27.43;25.93;;;24.60;64.70;;;;;;5057974;28;20505;-84
2021/06/05 09:24:27;;;;;;;28.37;26.57;;;24.40;65.70;;;;;;5057691;28;20462;-84
2021/06/05 09:27:21;;;;;;;28.23;26.60;;;24.30;66.20;;;;;;5045085;28;20501;-85
2021/06/05 09:29:57;;;;;;;28.03;26.43;;;24.40;65.80;;;;;;5049930;28;20455;-84
2021/06/05 09:32:25;;;;;;;26.50;25.03;;;24.30;65.70;;;;;;5051750;28;20941;-83
2021/06/05 09:34:55;;;;;;;29.10;27.20;;;24.20;66.30;;;;;;5049145;28;21999;-83
2021/06/05 09:37:34;;;;;;;26.13;24.73;;;24.10;66.40;;;;;;5058899;28;20577;-84
2021/06/05 09:40:08;;;;;;;28.83;27.23;;;24.00;66.80;;;;;;5046496;28;20451;-84
2021/06/05 09:42:39;;;;;;;27.00;25.60;;;24.00;66.80;;;;;;5064949;28;20472;-84
2021/06/05 09:45:09;;;;;;;28.00;26.50;;;24.00;66.80;;;;;;5058480;28;20461;-85
2021/06/05 09:47:35;;;;;;;27.97;26.50;;;23.90;67.40;;;;;;5055101;28;20493;-84
2021/06/05 09:50:22;;;;;;;27.60;26.00;;;23.40;69.00;;;;;;5050825;28;20458;-84
2021/06/05 09:52:51;;;;;;;27.40;25.90;;;22.80;71.10;;;;;;5060652;28;20486;-84
2021/06/05 09:55:39;;;;;;;27.47;25.97;;;23.10;70.60;;;;;;5047878;28;20473;-85
2021/06/05 09:58:10;;;;;;;28.13;26.40;;;23.40;70.10;;;;;;5051769;28;20485;-84
2021/06/05 10:00:39;;;;;;;26.50;25.00;;;23.50;69.80;;;;;;5047748;28;20882;-84
2021/06/05 10:03:25;;;;;;;29.03;27.40;;;23.70;69.10;;;;;;5051477;28;20475;-85
2021/06/05 10:05:53;;;;;;;26.27;24.77;;;23.50;69.60;;;;;;5055038;28;20474;-88
2021/06/05 10:08:27;;;;;;;25.30;24.00;;;23.50;69.80;;;;;;5063025;28;20464;-80
2021/06/05 10:11:00;;;;;;;25.57;24.27;;;23.80;69.10;;;;;;5056175;28;20722;-80
2021/06/05 10:13:33;;;;;;;25.90;24.50;;;23.90;68.80;;;;;;5054930;28;20610;-79
2021/06/05 10:16:05;;;;;;;27.33;25.80;;;24.00;69.00;;;;;;5056231;28;20451;-90
2021/06/05 10:18:38;;;;;;;25.73;24.33;;;24.10;68.80;;;;;;5046576;28;21098;-83
2021/06/05 10:21:13;;;;;;;26.53;25.03;;;24.00;69.40;;;;;;5060189;28;20554;-84
2021/06/05 10:23:59;;;;;;;27.60;26.00;;;24.20;68.90;;;;;;5074323;28;20512;-84
2021/06/05 10:26:30;;;;;;;27.30;25.70;;;24.30;68.30;;;;;;5054357;28;20485;-83
2021/06/05 10:29:03;;;;;;;27.30;25.80;;;24.40;67.10;;;;;;5051346;28;20457;-84
2021/06/05 10:31:32;;;;;;;26.50;24.60;;;24.30;67.40;;;;;;5061931;28;20470;-84
2021/06/05 10:34:03;;;;;;;26.37;24.90;;;24.30;68.10;;;;;;5060692;28;20495;-83
2021/06/05 10:36:34;;;;;;;25.77;24.37;;;24.60;68.00;;;;;;5063510;28;20462;-80
2021/06/05 10:39:07;;;;;;;25.70;24.37;;;24.80;68.40;;;;;;5060767;28;20968;-85
2021/06/05 10:41:38;;;;;;;26.63;25.13;;;25.10;67.00;;;;;;5060326;28;20485;-81
2021/06/05 10:44:06;;;;;;;26.03;24.70;;;25.40;66.80;;;;;;5059261;28;20836;-86
2021/06/05 10:46:42;;;;;;;26.30;24.80;;;25.50;66.70;;;;;;5062614;28;20482;-81
2021/06/05 10:49:16;;;;;;;27.73;26.13;;;25.50;67.00;;;;;;5052694;28;20904;-84
2021/06/05 10:51:45;;;;;;;27.77;26.00;;;25.60;66.80;;;;;;5047707;28;20459;-84
2021/06/05 10:54:20;;;;;;;27.90;26.20;;;25.80;66.50;;;;;;5047776;28;20550;-86
2021/06/05 10:57:01;;;;;;;26.30;24.90;;;25.70;67.10;;;;;;5073456;28;20477;-82
2021/06/05 10:59:43;;;;;;;27.37;25.97;;;25.70;66.20;;;;;;5056659;28;20502;-83
2021/06/05 11:02:10;;;;;;;27.70;26.17;;;25.70;67.50;;;;;;5068400;28;20470;-83
2021/06/05 11:04:46;;;;;;;27.03;25.53;;;25.80;66.60;;;;;;5062084;28;20553;-82
2021/06/05 11:07:25;;;;;;;28.33;26.63;;;25.80;66.20;;;;;;5050938;28;20505;-82
2021/06/05 11:09:55;;;;;;;26.63;25.13;;;26.00;65.40;;;;;;5054334;28;20469;-82
2021/06/05 11:12:52;;;;;;;26.70;24.80;;;26.10;65.40;;;;;;5072609;28;20507;-81
2021/06/05 11:15:54;;;;;;;29.77;27.57;;;26.10;65.70;;;;;;5048690;28;20857;-79
2021/06/05 11:18:35;;;;;;;26.90;25.50;;;26.50;64.60;;;;;;5050373;28;20452;-83
2021/06/05 11:21:35;;;;;;;27.90;26.30;;;26.50;63.60;;;;;;5056532;28;20472;-80
2021/06/05 11:24:22;;;;;;;27.13;25.63;;;26.40;63.60;;;;;;5059415;28;20577;-78
2021/06/05 11:26:52;;;;;;;26.43;25.07;;;26.30;64.10;;;;;;5068823;28;20516;-77
2021/06/05 11:29:54;;;;;;;28.97;27.17;;;26.40;65.00;;;;;;5051171;28;20469;-78
2021/06/05 11:32:45;;;;;;;27.43;26.03;;;26.60;64.00;;;;;;5060216;28;20552;-80
2021/06/05 11:35:13;;;;;;;26.53;25.13;;;26.80;63.50;;;;;;5049310;28;20465;-78
2021/06/05 11:37:55;;;;;;;26.90;25.40;;;27.00;62.40;;;;;;5058763;28;20473;-77
2021/06/05 11:40:59;;;;;;;27.93;26.30;;;27.20;61.70;;;;;;5053617;28;20458;-78
2021/06/05 11:44:14;;;;;;;29.67;28.00;;;27.50;61.00;;;;;;5062707;28;20476;-78
2021/06/05 11:46:49;;;;;;;27.80;26.03;;;27.70;59.80;;;;;;5048730;28;20478;-77
2021/06/05 11:49:47;;;;;;;28.33;26.63;;;27.70;58.80;;;;;;5060040;28;20473;-77
2021/06/05 11:52:45;;;;;;;26.93;25.53;;;27.80;58.70;;;;;;5047404;28;21379;-76
2021/06/05 11:55:39;;;;;;;27.70;26.20;;;27.20;59.20;;;;;;5057724;28;20500;-75
2021/06/05 11:58:13;;;;;;;27.07;25.57;;;26.90;59.10;;;;;;5064084;28;20450;-78
2021/06/05 12:00:44;;;;;;;27.80;25.90;;;26.40;60.30;;;;;;5059375;28;20461;-77
2021/06/05 12:03:24;;;;;;;27.87;26.07;;;26.50;60.30;;;;;;5068328;28;20474;-77
2021/06/05 12:05:51;;;;;;;29.27;27.57;;;26.20;61.10;;;;;;5070010;28;20461;-78
2021/06/05 12:08:24;;;;;;;28.13;26.60;;;26.20;61.70;;;;;;5064763;28;20458;-78
2021/06/05 12:10:51;;;;;;;29.87;28.17;;;25.90;62.50;;;;;;5072324;28;20545;-83
2021/06/05 12:13:26;;;;;;;27.37;25.87;;;25.80;62.40;;;;;;5056993;28;20498;-81
2021/06/05 12:15:55;;;;;;;28.30;26.70;;;25.70;62.60;;;;;;5068560;28;21269;-76
2021/06/05 12:18:26;;;;;;;26.87;25.37;;;25.50;63.40;;;;;;5060798;28;20467;-84
2021/06/05 12:20:59;;;;;;;27.77;26.23;;;25.40;64.10;;;;;;5061289;28;21194;-82
2021/06/05 12:23:29;;;;;;;27.47;25.97;;;25.60;64.40;;;;;;5058250;28;20471;-78
2021/06/05 12:26:03;;;;;;;27.93;26.33;;;25.90;64.60;;;;;;5060208;28;20492;-80
2021/06/05 12:28:31;;;;;;;29.37;27.67;;;26.30;63.40;;;;;;5052595;28;20542;-77
2021/06/05 12:31:12;;;;;;;28.03;26.13;;;26.50;63.20;;;;;;5061032;28;20972;-77
2021/06/05 12:33:41;;;;;;;28.10;26.50;;;26.80;62.80;;;;;;5056198;28;20597;-77
2021/06/05 12:36:21;;;;;;;26.53;25.10;;;26.90;62.10;;;;;;5048888;28;20455;-77
2021/06/05 12:38:57;;;;;;;27.10;25.50;;;27.10;62.00;;;;;;5054198;28;20892;-77
2021/06/05 12:41:26;;;;;;;27.87;25.93;;;27.20;60.80;;;;;;5050423;28;20458;-78
2021/06/05 12:43:57;;;;;;;27.67;26.03;;;27.40;60.60;;;;;;5055112;28;20535;-77
2021/06/05 12:46:27;;;;;;;27.10;25.60;;;27.50;60.30;;;;;;5058319;28;20482;-77